createdAt,value
2022-09-09T00:00:47.355Z,17.51
2022-09-09T00:01:47.332Z,17.49
2022-09-09T00:02:47.420Z,17.47
2022-09-09T00:03:47.414Z,17.49
2022-09-09T00:04:47.304Z,17.49
2022-09-09T00:05:47.284Z,17.49
2022-09-09T00:06:47.283Z,17.53
2022-09-09T00:07:47.296Z,17.53
2022-09-09T00:08:47.254Z,17.49
2022-09-09T00:09:47.253Z,17.47
2022-09-09T00:10:47.244Z,17.49
2022-09-09T00:11:47.245Z,17.47
2022-09-09T00:12:47.245Z,17.49
2022-09-09T00:13:47.202Z,17.47
2022-09-09T00:14:47.208Z,17.43
2022-09-09T00:15:47.226Z,17.43
2022-09-09T00:16:47.178Z,17.42
2022-09-09T00:17:47.184Z,17.42
2022-09-09T00:18:47.155Z,17.40
2022-09-09T00:19:47.136Z,17.43
2022-09-09T00:20:47.126Z,17.45
2022-09-09T00:21:47.117Z,17.42
2022-09-09T00:22:47.128Z,17.45
2022-09-09T00:23:47.126Z,17.45
2022-09-09T00:24:47.080Z,17.45
2022-09-09T00:25:50.725Z,17.46
2022-09-09T00:26:48.062Z,17.47
2022-09-09T00:27:47.058Z,17.51
2022-09-09T00:28:47.059Z,17.51
2022-09-09T00:29:47.039Z,17.51
2022-09-09T00:30:47.076Z,17.53
2022-09-09T00:31:47.018Z,17.54
2022-09-09T00:32:46.999Z,17.55
2022-09-09T00:33:47.030Z,17.55
2022-09-09T00:34:46.980Z,17.57
2022-09-09T00:35:46.972Z,17.58
2022-09-09T00:36:46.961Z,17.58
2022-09-09T00:37:46.953Z,17.58
2022-09-09T00:38:46.938Z,17.58
2022-09-09T00:39:46.997Z,17.58
2022-09-09T00:40:46.912Z,17.62
2022-09-09T00:41:46.931Z,17.60
2022-09-09T00:42:46.895Z,17.62
2022-09-09T00:43:46.882Z,17.65
2022-09-09T00:44:46.873Z,17.66
2022-09-09T00:45:46.922Z,17.66
2022-09-09T00:46:46.852Z,17.66
2022-09-09T00:47:46.844Z,17.66
2022-09-09T00:48:46.833Z,17.66
2022-09-09T00:49:46.851Z,17.70
2022-09-09T00:50:46.804Z,17.70
2022-09-09T00:51:46.824Z,17.70
2022-09-09T00:52:46.805Z,17.71
2022-09-09T00:53:46.775Z,17.73
2022-09-09T00:54:46.765Z,17.73
2022-09-09T00:55:46.757Z,17.74
2022-09-09T00:56:46.748Z,17.73
2022-09-09T00:57:46.766Z,17.76
2022-09-09T00:58:46.747Z,17.76
2022-09-09T00:59:46.716Z,17.77
2022-09-09T01:00:46.697Z,17.77
2022-09-09T01:01:46.716Z,17.77
2022-09-09T01:02:46.783Z,17.77
2022-09-09T01:03:46.668Z,17.76
2022-09-09T01:04:46.657Z,17.76
2022-09-09T01:05:46.655Z,17.76
2022-09-09T01:06:46.658Z,17.76
2022-09-09T01:07:46.630Z,17.76
2022-09-09T01:08:46.638Z,17.76
2022-09-09T01:09:46.609Z,17.76
2022-09-09T01:10:46.589Z,17.77
2022-09-09T01:11:46.590Z,17.77
2022-09-09T01:12:46.570Z,17.79
2022-09-09T01:13:46.568Z,17.79
2022-09-09T01:14:46.552Z,17.79
2022-09-09T01:15:46.569Z,17.79
2022-09-09T01:16:46.586Z,17.80
2022-09-09T01:17:46.520Z,17.81
2022-09-09T01:18:46.510Z,17.80
2022-09-09T01:19:46.502Z,17.79
2022-09-09T01:20:46.481Z,17.80
2022-09-09T01:21:46.478Z,17.81
2022-09-09T01:22:46.489Z,17.83
2022-09-09T01:23:46.453Z,17.84
2022-09-09T01:24:46.462Z,17.83
2022-09-09T01:25:46.432Z,17.86
2022-09-09T01:26:46.442Z,17.86
2022-09-09T01:27:46.414Z,17.86
2022-09-09T01:28:46.393Z,17.87
2022-09-09T01:29:46.422Z,17.91
2022-09-09T01:30:46.441Z,17.89
2022-09-09T01:31:46.375Z,17.87
2022-09-09T01:32:46.361Z,17.87
2022-09-09T01:33:46.345Z,17.87
2022-09-09T01:34:46.355Z,17.86
2022-09-09T01:35:46.327Z,17.87
2022-09-09T01:36:46.315Z,17.86
2022-09-09T01:37:46.308Z,17.83
2022-09-09T01:38:46.287Z,17.83
2022-09-09T01:39:46.391Z,17.83
2022-09-09T01:40:46.296Z,17.81
2022-09-09T01:41:46.267Z,17.80
2022-09-09T01:42:46.247Z,17.81
2022-09-09T01:43:46.245Z,17.83
2022-09-09T01:44:46.226Z,17.81
2022-09-09T01:45:46.307Z,17.80
2022-09-09T01:46:46.207Z,17.81
2022-09-09T01:47:46.198Z,17.81
2022-09-09T01:48:46.189Z,17.80
2022-09-09T01:49:46.180Z,17.83
2022-09-09T01:50:46.161Z,17.81
2022-09-09T01:51:46.156Z,17.80
2022-09-09T01:52:46.159Z,17.79
2022-09-09T01:53:46.144Z,17.79
2022-09-09T01:54:46.151Z,17.80
2022-09-09T01:55:46.132Z,17.80
2022-09-09T01:56:46.124Z,17.83
2022-09-09T01:57:46.103Z,17.84
2022-09-09T01:58:46.093Z,17.84
2022-09-09T01:59:46.106Z,17.84
2022-09-09T02:00:46.074Z,17.83
2022-09-09T02:01:46.074Z,17.86
2022-09-09T02:02:46.102Z,17.84
2022-09-09T02:03:46.034Z,17.83
2022-09-09T02:04:46.053Z,17.81
2022-09-09T02:05:46.045Z,17.80
2022-09-09T02:06:46.016Z,17.80
2022-09-09T02:07:46.025Z,17.81
2022-09-09T02:08:45.988Z,17.81
2022-09-09T02:09:45.977Z,17.79
2022-09-09T02:10:46.006Z,17.76
2022-09-09T02:11:45.946Z,17.77
2022-09-09T02:12:45.947Z,17.76
2022-09-09T02:13:45.937Z,17.73
2022-09-09T02:14:45.938Z,17.73
2022-09-09T02:15:45.967Z,17.71
2022-09-09T02:16:45.973Z,17.68
2022-09-09T02:17:45.898Z,17.65
2022-09-09T02:18:45.899Z,17.63
2022-09-09T02:19:45.860Z,17.62
2022-09-09T02:20:45.879Z,17.60
2022-09-09T02:21:45.868Z,17.58
2022-09-09T02:22:45.848Z,17.55
2022-09-09T02:23:45.851Z,17.57
2022-09-09T02:24:45.831Z,17.55
2022-09-09T02:25:45.800Z,17.54
2022-09-09T02:26:45.830Z,17.51
2022-09-09T02:27:45.790Z,17.49
2022-09-09T02:28:45.771Z,17.45
2022-09-09T02:29:45.761Z,17.42
2022-09-09T02:30:45.873Z,17.40
2022-09-09T02:31:45.741Z,17.39
2022-09-09T02:32:45.755Z,17.36
2022-09-09T02:33:45.721Z,17.35
2022-09-09T02:34:45.721Z,17.33
2022-09-09T02:35:45.710Z,17.33
2022-09-09T02:36:45.693Z,17.35
2022-09-09T02:37:45.712Z,17.35
2022-09-09T02:38:45.673Z,17.36
2022-09-09T02:39:45.719Z,17.35
2022-09-09T02:40:45.664Z,17.30
2022-09-09T02:41:45.634Z,17.32
2022-09-09T02:42:45.625Z,17.27
2022-09-09T02:43:45.615Z,17.27
2022-09-09T02:44:45.604Z,17.28
2022-09-09T02:45:45.645Z,17.30
2022-09-09T02:46:45.575Z,17.27
2022-09-09T02:47:45.572Z,17.25
2022-09-09T02:48:45.567Z,17.22
2022-09-09T02:49:45.545Z,17.21
2022-09-09T02:50:45.536Z,17.20
2022-09-09T02:51:45.544Z,17.20
2022-09-09T02:52:45.535Z,17.17
2022-09-09T02:53:45.497Z,17.14
2022-09-09T02:54:45.497Z,17.14
2022-09-09T02:55:45.495Z,17.12
2022-09-09T02:56:45.499Z,17.09
2022-09-09T02:57:45.468Z,17.09
2022-09-09T02:58:45.482Z,17.06
2022-09-09T02:59:45.448Z,17.06
2022-09-09T03:00:45.501Z,17.06
2022-09-09T03:01:45.419Z,17.03
2022-09-09T03:02:45.456Z,17.02
2022-09-09T03:03:45.424Z,17.00
2022-09-09T03:04:45.463Z,16.99
2022-09-09T03:05:45.380Z,16.98
2022-09-09T03:06:45.374Z,16.98
2022-09-09T03:07:45.390Z,16.96
2022-09-09T03:08:49.529Z,16.95
2022-09-09T03:09:45.341Z,16.92
2022-09-09T03:10:45.322Z,16.90
2022-09-09T03:11:45.308Z,16.90
2022-09-09T03:12:45.323Z,16.88
2022-09-09T03:13:45.311Z,16.87
2022-09-09T03:14:45.302Z,16.87
2022-09-09T03:15:45.282Z,16.82
2022-09-09T03:16:45.315Z,16.84
2022-09-09T03:17:45.242Z,16.82
2022-09-09T03:18:45.234Z,16.81
2022-09-09T03:19:45.263Z,16.82
2022-09-09T03:20:45.223Z,16.87
2022-09-09T03:21:45.203Z,16.85
2022-09-09T03:22:45.195Z,16.87
2022-09-09T03:23:45.195Z,16.87
2022-09-09T03:24:45.193Z,16.88
2022-09-09T03:25:45.195Z,16.88
2022-09-09T03:26:45.155Z,16.88
2022-09-09T03:27:45.138Z,16.87
2022-09-09T03:28:45.126Z,16.87
2022-09-09T03:29:45.156Z,16.88
2022-09-09T03:30:45.117Z,16.90
2022-09-09T03:31:45.160Z,16.87
2022-09-09T03:32:48.883Z,16.91
2022-09-09T03:33:45.067Z,16.90
2022-09-09T03:34:45.087Z,16.87
2022-09-09T03:35:45.067Z,16.88
2022-09-09T03:36:45.047Z,16.88
2022-09-09T03:37:45.047Z,16.88
2022-09-09T03:38:45.037Z,16.87
2022-09-09T03:39:45.040Z,16.82
2022-09-09T03:40:45.018Z,16.81
2022-09-09T03:41:44.989Z,16.81
2022-09-09T03:42:45.018Z,16.80
2022-09-09T03:43:44.966Z,16.78
2022-09-09T03:44:44.980Z,16.75
2022-09-09T03:45:44.987Z,16.72
2022-09-09T03:46:44.947Z,16.72
2022-09-09T03:47:44.938Z,16.69
2022-09-09T03:48:44.930Z,16.67
2022-09-09T03:49:44.907Z,16.66
2022-09-09T03:50:44.891Z,16.63
2022-09-09T03:51:44.881Z,16.65
2022-09-09T03:52:44.871Z,16.63
2022-09-09T03:53:44.873Z,16.62
2022-09-09T03:54:44.852Z,16.63
2022-09-09T03:55:44.857Z,16.63
2022-09-09T03:56:44.834Z,16.66
2022-09-09T03:57:44.832Z,16.65
2022-09-09T03:58:44.823Z,16.65
2022-09-09T03:59:44.802Z,16.65
2022-09-09T04:00:44.816Z,16.65
2022-09-09T04:01:44.798Z,16.65
2022-09-09T04:02:44.773Z,16.65
2022-09-09T04:03:44.773Z,16.63
2022-09-09T04:04:44.754Z,16.63
2022-09-09T04:05:44.744Z,16.60
2022-09-09T04:06:44.725Z,16.60
2022-09-09T04:07:44.715Z,16.63
2022-09-09T04:08:44.724Z,16.63
2022-09-09T04:09:44.704Z,16.65
2022-09-09T04:10:44.704Z,16.66
2022-09-09T04:11:44.665Z,16.69
2022-09-09T04:12:47.786Z,16.69
2022-09-09T04:13:44.659Z,16.73
2022-09-09T04:14:44.646Z,16.73
2022-09-09T04:15:44.636Z,16.73
2022-09-09T04:16:44.695Z,16.77
2022-09-09T04:17:44.599Z,16.78
2022-09-09T04:18:44.608Z,16.78
2022-09-09T04:19:44.598Z,16.78
2022-09-09T04:20:44.567Z,16.81
2022-09-09T04:21:44.567Z,16.78
2022-09-09T04:22:44.567Z,16.80
2022-09-09T04:23:44.568Z,16.82
2022-09-09T04:24:48.166Z,16.82
2022-09-09T04:25:44.529Z,16.84
2022-09-09T04:26:44.518Z,16.84
2022-09-09T04:27:44.508Z,16.85
2022-09-09T04:28:44.500Z,16.84
2022-09-09T04:29:44.500Z,16.84
2022-09-09T04:30:44.480Z,16.81
2022-09-09T04:31:44.488Z,16.81
2022-09-09T04:32:44.463Z,16.81
2022-09-09T04:33:44.441Z,16.82
2022-09-09T04:34:44.421Z,16.84
2022-09-09T04:35:44.421Z,16.84
2022-09-09T04:36:44.442Z,16.85
2022-09-09T04:37:44.397Z,16.87
2022-09-09T04:38:44.392Z,16.87
2022-09-09T04:39:44.439Z,16.90
2022-09-09T04:40:44.363Z,16.91
2022-09-09T04:41:44.344Z,16.95
2022-09-09T04:42:44.331Z,16.96
2022-09-09T04:43:44.357Z,16.96
2022-09-09T04:44:44.313Z,16.98
2022-09-09T04:45:44.377Z,16.98
2022-09-09T04:46:44.313Z,16.99
2022-09-09T04:47:44.293Z,16.99
2022-09-09T04:48:44.284Z,16.98
2022-09-09T04:49:44.281Z,16.96
2022-09-09T04:50:44.263Z,16.95
2022-09-09T04:51:44.244Z,16.92
2022-09-09T04:52:44.234Z,16.87
2022-09-09T04:53:44.214Z,16.84
2022-09-09T04:54:44.216Z,16.80
2022-09-09T04:55:44.215Z,16.77
2022-09-09T04:56:44.259Z,16.73
2022-09-09T04:57:44.197Z,16.73
2022-09-09T04:58:44.232Z,16.72
2022-09-09T04:59:44.166Z,16.69
2022-09-09T05:00:44.187Z,16.67
2022-09-09T05:01:44.188Z,16.66
2022-09-09T05:02:44.178Z,16.63
2022-09-09T05:03:44.167Z,16.63
2022-09-09T05:04:44.127Z,16.66
2022-09-09T05:05:44.108Z,16.63
2022-09-09T05:06:44.091Z,16.60
2022-09-09T05:07:44.068Z,16.62
2022-09-09T05:08:44.070Z,16.60
2022-09-09T05:09:44.058Z,16.59
2022-09-09T05:10:44.065Z,16.59
2022-09-09T05:11:44.027Z,16.62
2022-09-09T05:12:44.009Z,16.62
2022-09-09T05:13:44.010Z,16.62
2022-09-09T05:14:44.000Z,16.65
2022-09-09T05:15:44.038Z,16.66
2022-09-09T05:16:44.011Z,16.67
2022-09-09T05:17:43.987Z,16.70
2022-09-09T05:18:43.961Z,16.72
2022-09-09T05:19:43.950Z,16.75
2022-09-09T05:20:43.942Z,16.78
2022-09-09T05:21:43.951Z,16.78
2022-09-09T05:22:43.901Z,16.81
2022-09-09T05:23:43.912Z,16.84
2022-09-09T05:24:43.893Z,16.85
2022-09-09T05:25:43.892Z,16.87
2022-09-09T05:26:43.861Z,16.91
2022-09-09T05:27:43.873Z,16.95
2022-09-09T05:28:43.853Z,16.98
2022-09-09T05:29:43.881Z,17.00
2022-09-09T05:30:43.833Z,17.02
2022-09-09T05:31:43.910Z,17.06
2022-09-09T05:32:43.814Z,17.07
2022-09-09T05:33:44.508Z,17.10
2022-09-09T05:34:43.885Z,17.12
2022-09-09T05:35:44.483Z,17.15
2022-09-09T05:36:43.765Z,17.17
2022-09-09T05:37:44.779Z,17.18
2022-09-09T05:38:43.746Z,17.20
2022-09-09T05:39:44.490Z,17.21
2022-09-09T05:40:43.726Z,17.22
2022-09-09T05:41:44.424Z,17.22
2022-09-09T05:42:43.705Z,17.25
2022-09-09T05:43:43.917Z,17.25
2022-09-09T05:44:43.697Z,17.25
2022-09-09T05:45:43.727Z,17.27
2022-09-09T05:46:43.696Z,17.28
2022-09-09T05:47:43.750Z,17.28
2022-09-09T05:48:43.668Z,17.30
2022-09-09T05:49:43.638Z,17.30
2022-09-09T05:50:43.638Z,17.30
2022-09-09T05:51:43.618Z,17.30
2022-09-09T05:52:43.579Z,17.30
2022-09-09T05:53:43.589Z,17.32
2022-09-09T05:54:43.590Z,17.33
2022-09-09T05:55:43.573Z,17.35
2022-09-09T05:56:43.540Z,17.36
2022-09-09T05:57:43.540Z,17.39
2022-09-09T05:58:43.530Z,17.42
2022-09-09T05:59:43.520Z,17.43
2022-09-09T06:00:43.523Z,17.45
2022-09-09T06:01:43.675Z,17.47
2022-09-09T06:02:43.599Z,17.49
2022-09-09T06:03:43.481Z,17.51
2022-09-09T06:04:43.462Z,17.54
2022-09-09T06:05:43.463Z,17.55
2022-09-09T06:06:43.460Z,17.57
2022-09-09T06:07:43.443Z,17.58
2022-09-09T06:08:43.423Z,17.65
2022-09-09T06:09:43.682Z,17.71
2022-09-09T06:10:43.392Z,17.77
2022-09-09T06:11:43.394Z,17.84
2022-09-09T06:12:43.383Z,17.89
2022-09-09T06:13:43.354Z,17.98
2022-09-09T06:14:46.401Z,18.07
2022-09-09T06:15:43.355Z,18.13
2022-09-09T06:16:43.426Z,18.21
2022-09-09T06:17:43.326Z,18.25
2022-09-09T06:18:43.321Z,18.29
2022-09-09T06:19:43.325Z,18.29
2022-09-09T06:20:43.296Z,18.32
2022-09-09T06:21:43.285Z,18.35
2022-09-09T06:22:43.278Z,18.35
2022-09-09T06:23:43.255Z,18.35
2022-09-09T06:24:43.261Z,18.38
2022-09-09T06:25:43.247Z,18.36
2022-09-09T06:26:43.507Z,18.39
2022-09-09T06:27:43.210Z,18.38
2022-09-09T06:28:43.208Z,18.36
2022-09-09T06:29:43.197Z,18.39
2022-09-09T06:30:43.186Z,18.36
2022-09-09T06:31:43.225Z,18.38
2022-09-09T06:32:43.178Z,18.35
2022-09-09T06:33:43.157Z,18.36
2022-09-09T06:34:43.129Z,18.36
2022-09-09T06:35:43.159Z,18.38
2022-09-09T06:36:43.109Z,18.36
2022-09-09T06:37:43.171Z,18.35
2022-09-09T06:38:43.089Z,18.35
2022-09-09T06:39:43.158Z,18.36
2022-09-09T06:40:43.070Z,18.38
2022-09-09T06:41:43.071Z,18.39
2022-09-09T06:42:43.071Z,18.42
2022-09-09T06:43:43.052Z,18.46
2022-09-09T06:44:43.030Z,18.49
2022-09-09T06:45:43.052Z,18.50
2022-09-09T06:46:43.165Z,18.54
2022-09-09T06:47:43.012Z,18.56
2022-09-09T06:48:42.993Z,18.59
2022-09-09T06:49:46.486Z,18.64
2022-09-09T06:50:43.973Z,18.65
2022-09-09T06:51:42.973Z,18.66
2022-09-09T06:52:42.943Z,18.66
2022-09-09T06:53:43.222Z,18.68
2022-09-09T06:54:42.934Z,18.72
2022-09-09T06:55:42.916Z,18.74
2022-09-09T06:56:42.932Z,18.75
2022-09-09T06:57:42.905Z,18.78
2022-09-09T06:58:42.915Z,18.82
2022-09-09T06:59:42.883Z,18.82
2022-09-09T07:00:42.923Z,18.86
2022-09-09T07:01:42.922Z,18.90
2022-09-09T07:02:42.845Z,18.93
2022-09-09T07:03:42.856Z,18.97
2022-09-09T07:04:42.866Z,19.02
2022-09-09T07:05:42.807Z,19.06
2022-09-09T07:06:42.807Z,19.10
2022-09-09T07:07:42.815Z,19.13
2022-09-09T07:08:42.807Z,19.15
2022-09-09T07:09:42.797Z,19.21
2022-09-09T07:10:42.768Z,19.24
2022-09-09T07:11:42.790Z,19.25
2022-09-09T07:12:42.738Z,19.30
2022-09-09T07:13:42.739Z,19.34
2022-09-09T07:14:42.719Z,19.42
2022-09-09T07:15:42.732Z,19.46
2022-09-09T07:16:42.711Z,19.55
2022-09-09T07:17:42.721Z,19.62
2022-09-09T07:18:42.699Z,19.72
2022-09-09T07:19:42.983Z,19.83
2022-09-09T07:20:42.651Z,19.90
2022-09-09T07:21:42.653Z,19.95
2022-09-09T07:22:42.642Z,19.98
2022-09-09T07:23:42.671Z,20.01
2022-09-09T07:24:42.631Z,20.04
2022-09-09T07:25:42.610Z,20.08
2022-09-09T07:26:42.592Z,20.10
2022-09-09T07:27:42.582Z,20.16
2022-09-09T07:28:42.582Z,20.22
2022-09-09T07:29:42.553Z,20.26
2022-09-09T07:30:42.553Z,20.30
2022-09-09T07:31:42.652Z,20.31
2022-09-09T07:32:42.534Z,20.33
2022-09-09T07:33:42.521Z,20.34
2022-09-09T07:34:42.534Z,20.37
2022-09-09T07:35:42.496Z,20.38
2022-09-09T07:36:42.505Z,20.40
2022-09-09T07:37:42.825Z,20.44
2022-09-09T07:38:42.475Z,20.46
2022-09-09T07:39:42.486Z,20.50
2022-09-09T07:40:42.435Z,20.54
2022-09-09T07:41:42.438Z,20.60
2022-09-09T07:42:42.456Z,20.63
2022-09-09T07:43:42.418Z,20.69
2022-09-09T07:44:42.410Z,20.72
2022-09-09T07:45:42.387Z,20.75
2022-09-09T07:46:42.457Z,20.78
2022-09-09T07:47:42.378Z,20.76
2022-09-09T07:48:42.448Z,20.76
2022-09-09T07:49:42.368Z,20.76
2022-09-09T07:50:42.339Z,20.72
2022-09-09T07:51:42.359Z,20.64
2022-09-09T07:52:42.338Z,20.56
2022-09-09T07:53:42.309Z,20.46
2022-09-09T07:54:42.309Z,20.38
2022-09-09T07:55:42.318Z,20.31
2022-09-09T07:56:42.266Z,20.26
2022-09-09T07:57:42.260Z,20.20
2022-09-09T07:58:42.249Z,20.17
2022-09-09T07:59:42.291Z,20.16
2022-09-09T08:00:42.222Z,20.15
2022-09-09T08:01:42.284Z,20.16
2022-09-09T08:02:42.242Z,20.22
2022-09-09T08:03:42.202Z,20.30
2022-09-09T08:04:44.002Z,20.35
2022-09-09T08:05:42.204Z,20.40
2022-09-09T08:06:42.182Z,20.48
2022-09-09T08:07:42.153Z,20.53
2022-09-09T08:08:42.143Z,20.54
2022-09-09T08:09:42.203Z,20.58
2022-09-09T08:10:42.137Z,20.61
2022-09-09T08:11:42.120Z,20.63
2022-09-09T08:12:47.701Z,20.63
2022-09-09T08:13:43.105Z,20.63
2022-09-09T08:14:42.450Z,20.63
2022-09-09T08:15:42.089Z,20.63
2022-09-09T08:16:42.105Z,20.60
2022-09-09T08:17:42.103Z,20.60
2022-09-09T08:18:42.034Z,20.60
2022-09-09T08:19:42.047Z,20.61
2022-09-09T08:20:42.048Z,20.64
2022-09-09T08:21:42.006Z,20.63
2022-09-09T08:22:42.018Z,20.69
2022-09-09T08:23:42.027Z,20.72
2022-09-09T08:24:41.988Z,20.75
2022-09-09T08:25:41.968Z,20.76
2022-09-09T08:26:42.068Z,20.75
2022-09-09T08:27:41.965Z,20.78
2022-09-09T08:28:41.954Z,20.78
2022-09-09T08:29:41.938Z,20.81
2022-09-09T08:30:41.991Z,20.82
2022-09-09T08:31:41.910Z,20.87
2022-09-09T08:32:45.029Z,20.88
2022-09-09T08:33:41.907Z,21.01
2022-09-09T08:34:46.468Z,21.12
2022-09-09T08:35:42.918Z,21.21
2022-09-09T08:36:42.184Z,21.26
2022-09-09T08:37:41.850Z,21.27
2022-09-09T08:38:42.160Z,21.30
2022-09-09T08:39:41.898Z,21.30
2022-09-09T08:40:41.834Z,21.31
2022-09-09T08:41:41.807Z,21.30
2022-09-09T08:42:42.081Z,21.33
2022-09-09T08:43:41.792Z,21.37
2022-09-09T08:44:44.502Z,21.43
2022-09-09T08:45:42.764Z,21.46
2022-09-09T08:46:41.806Z,21.43
2022-09-09T08:47:41.752Z,21.45
2022-09-09T08:48:41.744Z,21.46
2022-09-09T08:49:41.754Z,21.49
2022-09-09T08:50:41.713Z,21.51
2022-09-09T08:51:41.733Z,21.52
2022-09-09T08:52:41.685Z,21.51
2022-09-09T08:53:41.676Z,21.49
2022-09-09T08:54:52.019Z,21.48
2022-09-09T08:55:42.676Z,21.52
2022-09-09T08:56:41.627Z,21.58
2022-09-09T08:57:41.677Z,21.66
2022-09-09T08:58:41.635Z,21.74
2022-09-09T08:59:41.630Z,21.86
2022-09-09T09:00:41.627Z,21.98
2022-09-09T09:01:41.653Z,22.01
2022-09-09T09:02:41.591Z,22.02
2022-09-09T09:03:41.559Z,21.98
2022-09-09T09:04:41.609Z,21.96
2022-09-09T09:05:41.530Z,22.01
2022-09-09T09:06:41.528Z,22.09
2022-09-09T09:07:41.539Z,22.21
2022-09-09T09:08:41.534Z,22.33
2022-09-09T09:09:41.491Z,22.44
2022-09-09T09:10:42.745Z,22.51
2022-09-09T09:11:41.500Z,22.57
2022-09-09T09:12:41.479Z,22.63
2022-09-09T09:13:43.824Z,22.70
2022-09-09T09:14:42.875Z,22.78
2022-09-09T09:15:41.453Z,22.78
2022-09-09T09:16:41.419Z,22.84
2022-09-09T09:17:41.444Z,22.81
2022-09-09T09:18:41.432Z,22.78
2022-09-09T09:19:41.383Z,22.75
2022-09-09T09:20:41.394Z,22.72
2022-09-09T09:21:41.363Z,22.72
2022-09-09T09:22:41.687Z,22.70
2022-09-09T09:23:41.364Z,22.67
2022-09-09T09:24:42.292Z,22.59
2022-09-09T09:25:41.354Z,22.51
2022-09-09T09:26:41.355Z,22.36
2022-09-09T09:27:41.362Z,22.20
2022-09-09T09:28:41.308Z,22.09
2022-09-09T09:30:03.502Z,21.99
2022-09-09T09:30:42.337Z,21.91
2022-09-09T09:31:41.336Z,21.86
2022-09-09T09:32:41.257Z,21.82
2022-09-09T09:33:41.338Z,21.77
2022-09-09T09:34:41.277Z,21.70
2022-09-09T09:35:43.214Z,21.64
2022-09-09T09:36:41.217Z,21.58
2022-09-09T09:40:42.178Z,21.45
2022-09-09T09:41:41.147Z,21.43
2022-09-09T09:42:41.140Z,21.40
2022-09-09T09:43:41.199Z,21.37
2022-09-09T09:44:41.180Z,21.30
2022-09-09T09:45:43.951Z,21.26
2022-09-09T09:46:42.115Z,21.19
2022-09-09T09:47:41.121Z,21.16
2022-09-09T09:48:41.093Z,21.12
2022-09-09T09:49:41.099Z,21.11
2022-09-09T09:50:41.073Z,21.06
2022-09-09T09:51:41.043Z,21.06
2022-09-09T09:52:41.043Z,21.03
2022-09-09T09:53:41.025Z,21.03
2022-09-09T09:54:41.063Z,21.05
2022-09-09T09:55:41.344Z,21.05
2022-09-09T09:56:41.056Z,21.09
2022-09-09T09:57:40.974Z,21.13
2022-09-09T09:58:40.965Z,21.18
2022-09-09T09:59:41.302Z,21.19
2022-09-09T10:00:40.966Z,21.22
2022-09-09T10:01:40.982Z,21.27
2022-09-09T10:02:41.045Z,21.30
2022-09-09T10:03:40.926Z,21.34
2022-09-09T10:04:40.943Z,21.40
2022-09-09T10:05:40.916Z,21.46
2022-09-09T10:06:40.926Z,21.49
2022-09-09T10:07:40.868Z,21.52
2022-09-09T10:08:40.857Z,21.58
2022-09-09T10:09:40.878Z,21.66
2022-09-09T10:10:44.969Z,21.70
2022-09-09T10:11:41.848Z,21.74
2022-09-09T10:12:40.829Z,21.81
2022-09-09T10:13:40.949Z,21.89
2022-09-09T10:14:40.808Z,21.93
2022-09-09T10:15:40.829Z,21.99
2022-09-09T10:16:40.800Z,22.01
2022-09-09T10:17:40.770Z,22.05
2022-09-09T10:18:40.770Z,22.08
2022-09-09T10:19:40.741Z,22.11
2022-09-09T10:20:40.745Z,22.12
2022-09-09T10:21:40.733Z,22.14
2022-09-09T10:22:40.712Z,22.14
2022-09-09T10:23:40.712Z,22.17
2022-09-09T10:24:40.722Z,22.19
2022-09-09T10:25:40.712Z,22.20
2022-09-09T10:26:40.696Z,22.19
2022-09-09T10:27:40.673Z,22.19
2022-09-09T10:28:40.787Z,22.19
2022-09-09T10:29:40.648Z,22.21
2022-09-09T10:30:40.714Z,22.24
2022-09-09T10:31:40.626Z,22.36
2022-09-09T10:32:40.605Z,22.51
2022-09-09T10:33:40.644Z,22.74
2022-09-09T10:34:40.587Z,22.94
2022-09-09T10:35:40.597Z,23.09
2022-09-09T10:36:40.567Z,23.23
2022-09-09T10:37:40.618Z,23.32
2022-09-09T10:38:40.544Z,23.41
2022-09-09T10:39:42.945Z,23.56
2022-09-09T10:40:40.577Z,23.59
2022-09-09T10:41:40.577Z,23.54
2022-09-09T10:42:40.517Z,23.50
2022-09-09T10:43:40.507Z,23.47
2022-09-09T10:44:40.479Z,23.49
2022-09-09T10:45:40.499Z,23.53
2022-09-09T10:46:40.595Z,23.68
2022-09-09T10:47:40.490Z,23.82
2022-09-09T10:48:40.458Z,23.97
2022-09-09T10:49:40.461Z,24.08
2022-09-09T10:51:00.417Z,24.18
2022-09-09T10:51:42.325Z,24.26
2022-09-09T10:52:41.395Z,24.36
2022-09-09T10:53:40.382Z,24.42
2022-09-09T10:54:40.403Z,24.45
2022-09-09T10:55:40.381Z,24.49
2022-09-09T10:56:40.351Z,24.52
2022-09-09T10:57:40.342Z,24.53
2022-09-09T10:58:40.333Z,24.56
2022-09-09T10:59:40.374Z,24.55
2022-09-09T11:00:40.324Z,24.46
2022-09-09T11:01:40.342Z,24.39
2022-09-09T11:02:40.330Z,24.41
2022-09-09T11:03:40.294Z,24.44
2022-09-09T11:04:40.616Z,24.48
2022-09-09T11:05:40.266Z,24.53
2022-09-09T11:06:40.273Z,24.59
2022-09-09T11:07:40.234Z,24.56
2022-09-09T11:08:40.273Z,24.39
2022-09-09T11:09:40.217Z,24.29
2022-09-09T11:10:40.216Z,24.15
2022-09-09T11:11:40.208Z,23.97
2022-09-09T11:12:40.199Z,23.75
2022-09-09T11:13:40.187Z,23.50
2022-09-09T11:14:40.192Z,23.29
2022-09-09T11:15:40.167Z,23.14
2022-09-09T11:16:40.179Z,23.01
2022-09-09T11:17:40.133Z,22.85
2022-09-09T11:18:40.140Z,22.74
2022-09-09T11:19:40.152Z,22.63
2022-09-09T11:20:40.100Z,22.56
2022-09-09T11:21:40.139Z,22.39
2022-09-09T11:22:40.120Z,22.27
2022-09-09T11:23:42.090Z,22.09
2022-09-09T11:24:40.111Z,22.05
2022-09-09T11:25:40.092Z,22.04
2022-09-09T11:26:40.050Z,22.02
2022-09-09T11:27:40.751Z,21.98
2022-09-09T11:28:40.040Z,21.93
2022-09-09T11:29:40.070Z,21.94
2022-09-09T11:30:56.956Z,21.86
2022-09-09T11:31:41.045Z,21.85
2022-09-09T11:32:40.015Z,21.85
2022-09-09T11:33:39.955Z,21.85
2022-09-09T11:34:40.004Z,21.90
2022-09-09T11:35:39.965Z,22.04
2022-09-09T11:36:39.940Z,22.12
2022-09-09T11:37:39.946Z,22.24
2022-09-09T11:38:39.935Z,22.44
2022-09-09T11:39:39.966Z,22.46
2022-09-09T11:40:39.896Z,22.27
2022-09-09T11:41:39.904Z,22.12
2022-09-09T11:42:39.882Z,22.12
2022-09-09T11:43:40.179Z,22.05
2022-09-09T11:44:39.860Z,22.04
2022-09-09T11:45:39.870Z,22.04
2022-09-09T11:46:39.913Z,21.99
2022-09-09T11:47:39.828Z,21.83
2022-09-09T11:48:39.841Z,21.73
2022-09-09T11:49:39.799Z,21.70
2022-09-09T11:50:39.781Z,21.53
2022-09-09T11:51:39.798Z,21.49
2022-09-09T11:52:39.786Z,21.59
2022-09-09T11:53:39.751Z,21.63
2022-09-09T11:54:39.738Z,21.70
2022-09-09T11:55:39.738Z,21.81
2022-09-09T11:56:39.762Z,21.75
2022-09-09T11:57:39.712Z,21.82
2022-09-09T11:58:39.823Z,21.79
2022-09-09T11:59:39.689Z,21.89
2022-09-09T12:00:39.684Z,21.98
2022-09-09T12:01:39.688Z,22.08
2022-09-09T12:02:40.197Z,22.05
2022-09-09T12:03:39.714Z,22.08
2022-09-09T12:04:39.706Z,22.14
2022-09-09T12:05:39.635Z,22.24
2022-09-09T12:06:39.613Z,22.42
2022-09-09T12:07:39.605Z,22.57
2022-09-09T12:08:39.664Z,22.74
2022-09-09T12:09:39.594Z,22.93
2022-09-09T12:10:39.575Z,23.22
2022-09-09T12:11:39.605Z,23.41
2022-09-09T12:12:43.861Z,23.60
2022-09-09T12:13:39.546Z,24.02
2022-09-09T12:14:40.349Z,24.44
2022-09-09T12:15:39.514Z,24.34
2022-09-09T12:16:39.665Z,25.02
2022-09-09T12:17:40.297Z,26.54
2022-09-09T12:18:39.497Z,28.20
2022-09-09T12:19:39.479Z,29.33
2022-09-09T12:20:40.057Z,30.54
2022-09-09T12:21:39.449Z,31.84
2022-09-09T12:22:39.489Z,32.90
2022-09-09T12:23:39.550Z,33.52
2022-09-09T12:24:39.472Z,33.68
2022-09-09T12:25:39.412Z,34.53
2022-09-09T12:26:39.733Z,35.47
2022-09-09T12:27:39.449Z,36.55
2022-09-09T12:28:39.392Z,37.40
2022-09-09T12:29:39.403Z,38.22
2022-09-09T12:30:39.438Z,38.98
2022-09-09T12:31:42.674Z,40.04
2022-09-09T12:32:40.355Z,40.64
2022-09-09T12:33:39.345Z,41.05
2022-09-09T12:34:39.340Z,41.48
2022-09-09T12:35:39.315Z,42.00
2022-09-09T12:36:39.306Z,42.17
2022-09-09T12:37:39.327Z,42.57
2022-09-09T12:38:39.317Z,42.82
2022-09-09T12:39:39.319Z,42.83
2022-09-09T12:40:39.297Z,43.36
2022-09-09T12:41:39.290Z,43.48
2022-09-09T12:42:41.257Z,42.24
2022-09-09T12:43:39.249Z,39.62
2022-09-09T12:44:39.247Z,37.25
2022-09-09T12:45:40.096Z,35.17
2022-09-09T12:46:39.223Z,33.38
2022-09-09T12:47:39.199Z,32.72
2022-09-09T12:48:39.337Z,34.36
2022-09-09T12:49:39.185Z,33.72
2022-09-09T12:50:39.171Z,32.19
2022-09-09T12:51:39.162Z,33.20
2022-09-09T12:52:39.194Z,35.15
2022-09-09T12:53:39.162Z,36.37
2022-09-09T12:54:39.154Z,37.15
2022-09-09T12:55:39.174Z,37.72